sensor_id;sensor_type;location;lat;lon;timestamp;pressure;altitude;pressure_sealevel;temperature;humidity
46347;BME280;32057;47.830;19.046;2023-02-17T00:00:11;101172.94;;;-0.32;100.00
46347;BME280;32057;47.830;19.046;2023-02-17T00:02:37;101164.75;;;-0.28;100.00
46347;BME280;32057;47.830;19.046;2023-02-17T00:05:04;101160.72;;;-0.24;100.00
46347;BME280;32057;47.830;19.046;2023-02-17T00:07:33;101158.75;;;-0.16;100.00
46347;BME280;32057;47.830;19.046;2023-02-17T00:09:59;101163.41;;;-0.23;100.00
46347;BME280;32057;47.830;19.046;2023-02-17T00:12:25;101162.94;;;-0.29;100.00
46347;BME280;32057;47.830;19.046;2023-02-17T00:14:51;101152.97;;;-0.26;100.00
46347;BME280;32057;47.830;19.046;2023-02-17T00:17:16;101158.97;;;-0.25;100.00
46347;BME280;32057;47.830;19.046;2023-02-17T00:19:42;101155.19;;;-0.18;100.00
46347;BME280;32057;47.830;19.046;2023-02-17T00:22:07;101154.78;;;-0.13;100.00
46347;BME280;32057;47.830;19.046;2023-02-17T00:24:36;101154.34;;;-0.07;100.00
46347;BME280;32057;47.830;19.046;2023-02-17T00:27:02;101157.66;;;-0.08;100.00
46347;BME280;32057;47.830;19.046;2023-02-17T00:29:28;101159.94;;;-0.01;100.00
46347;BME280;32057;47.830;19.046;2023-02-17T00:31:54;101170.28;;;0.01;100.00
46347;BME280;32057;47.830;19.046;2023-02-17T00:34:20;101169.50;;;0.02;100.00
46347;BME280;32057;47.830;19.046;2023-02-17T00:36:45;101166.59;;;-0.03;100.00
46347;BME280;32057;47.830;19.046;2023-02-17T00:39:12;101170.72;;;-0.05;100.00
46347;BME280;32057;47.830;19.046;2023-02-17T00:41:38;101170.59;;;-0.07;100.00
46347;BME280;32057;47.830;19.046;2023-02-17T00:44:04;101163.03;;;-0.05;100.00
46347;BME280;32057;47.830;19.046;2023-02-17T00:46:29;101161.56;;;-0.13;100.00
46347;BME280;32057;47.830;19.046;2023-02-17T00:48:55;101167.84;;;-0.20;100.00
46347;BME280;32057;47.830;19.046;2023-02-17T00:51:22;101157.06;;;-0.28;100.00
46347;BME280;32057;47.830;19.046;2023-02-17T00:53:47;101162.72;;;-0.32;100.00
46347;BME280;32057;47.830;19.046;2023-02-17T00:56:13;101159.56;;;-0.39;100.00
46347;BME280;32057;47.830;19.046;2023-02-17T00:58:39;101163.53;;;-0.43;100.00
46347;BME280;32057;47.830;19.046;2023-02-17T01:01:09;101156.41;;;-0.47;100.00
46347;BME280;32057;47.830;19.046;2023-02-17T01:03:35;101160.25;;;-0.52;100.00
46347;BME280;32057;47.830;19.046;2023-02-17T01:06:06;101157.69;;;-0.52;100.00
46347;BME280;32057;47.830;19.046;2023-02-17T01:08:32;101160.03;;;-0.55;100.00
46347;BME280;32057;47.830;19.046;2023-02-17T01:10:58;101160.16;;;-0.54;100.00
46347;BME280;32057;47.830;19.046;2023-02-17T01:13:23;101155.94;;;-0.53;100.00
46347;BME280;32057;47.830;19.046;2023-02-17T01:15:50;101157.97;;;-0.49;100.00
46347;BME280;32057;47.830;19.046;2023-02-17T01:18:18;101160.63;;;-0.48;100.00
46347;BME280;32057;47.830;19.046;2023-02-17T01:20:43;101155.88;;;-0.43;100.00
46347;BME280;32057;47.830;19.046;2023-02-17T01:23:10;101157.63;;;-0.42;100.00
46347;BME280;32057;47.830;19.046;2023-02-17T01:25:40;101151.78;;;-0.41;100.00
46347;BME280;32057;47.830;19.046;2023-02-17T01:28:07;101152.00;;;-0.38;100.00
46347;BME280;32057;47.830;19.046;2023-02-17T01:30:32;101144.09;;;-0.41;100.00
46347;BME280;32057;47.830;19.046;2023-02-17T01:32:58;101140.88;;;-0.38;100.00
46347;BME280;32057;47.830;19.046;2023-02-17T01:35:24;101133.06;;;-0.40;100.00
46347;BME280;32057;47.830;19.046;2023-02-17T01:37:49;101135.75;;;-0.38;100.00
46347;BME280;32057;47.830;19.046;2023-02-17T01:40:16;101133.34;;;-0.37;100.00
46347;BME280;32057;47.830;19.046;2023-02-17T01:42:42;101122.34;;;-0.36;100.00
46347;BME280;32057;47.830;19.046;2023-02-17T01:48:28;101120.25;;;-0.30;100.00
46347;BME280;32057;47.830;19.046;2023-02-17T01:50:40;101125.03;;;-0.23;100.00
46347;BME280;32057;47.830;19.046;2023-02-17T01:53:08;101115.06;;;-0.19;100.00
46347;BME280;32057;47.830;19.046;2023-02-17T01:55:38;101103.28;;;-0.17;100.00
46347;BME280;32057;47.830;19.046;2023-02-17T01:58:06;101109.16;;;-0.18;100.00
46347;BME280;32057;47.830;19.046;2023-02-17T02:00:34;101111.84;;;-0.17;100.00
46347;BME280;32057;47.830;19.046;2023-02-17T02:03:00;101118.84;;;-0.14;100.00
46347;BME280;32057;47.830;19.046;2023-02-17T02:05:28;101114.72;;;-0.12;100.00
46347;BME280;32057;47.830;19.046;2023-02-17T02:07:54;101112.28;;;-0.11;100.00
46347;BME280;32057;47.830;19.046;2023-02-17T02:10:21;101114.97;;;-0.09;100.00
46347;BME280;32057;47.830;19.046;2023-02-17T02:12:46;101102.19;;;-0.09;100.00
46347;BME280;32057;47.830;19.046;2023-02-17T02:15:17;101106.50;;;-0.08;100.00
46347;BME280;32057;47.830;19.046;2023-02-17T02:23:05;101093.84;;;-0.07;100.00
46347;BME280;32057;47.830;19.046;2023-02-17T02:33:53;101090.41;;;-0.07;100.00
46347;BME280;32057;47.830;19.046;2023-02-17T02:36:30;101089.41;;;-0.09;100.00
46347;BME280;32057;47.830;19.046;2023-02-17T02:39:10;101081.59;;;-0.11;100.00
46347;BME280;32057;47.830;19.046;2023-02-17T02:42:01;101079.53;;;0.07;100.00
46347;BME280;32057;47.830;19.046;2023-02-17T02:44:29;101080.75;;;0.12;100.00
46347;BME280;32057;47.830;19.046;2023-02-17T02:47:06;101071.56;;;0.26;100.00
46347;BME280;32057;47.830;19.046;2023-02-17T02:49:50;101067.88;;;0.34;100.00
46347;BME280;32057;47.830;19.046;2023-02-17T02:55:17;101071.44;;;0.36;100.00
46347;BME280;32057;47.830;19.046;2023-02-17T02:58:03;101069.44;;;0.32;100.00
46347;BME280;32057;47.830;19.046;2023-02-17T03:01:05;101082.44;;;0.35;100.00
46347;BME280;32057;47.830;19.046;2023-02-17T03:09:13;101091.91;;;0.25;100.00
46347;BME280;32057;47.830;19.046;2023-02-17T03:11:40;101092.03;;;0.26;100.00
46347;BME280;32057;47.830;19.046;2023-02-17T03:14:12;101095.22;;;0.24;100.00
46347;BME280;32057;47.830;19.046;2023-02-17T03:16:39;101100.47;;;0.25;100.00
46347;BME280;32057;47.830;19.046;2023-02-17T03:19:05;101101.34;;;0.26;100.00
46347;BME280;32057;47.830;19.046;2023-02-17T03:22:00;101106.38;;;0.24;100.00
46347;BME280;32057;47.830;19.046;2023-02-17T03:24:22;101108.81;;;0.23;100.00
46347;BME280;32057;47.830;19.046;2023-02-17T03:26:48;101103.81;;;0.24;100.00
46347;BME280;32057;47.830;19.046;2023-02-17T03:29:13;101109.94;;;0.26;100.00
46347;BME280;32057;47.830;19.046;2023-02-17T03:31:39;101101.78;;;0.32;100.00
46347;BME280;32057;47.830;19.046;2023-02-17T03:34:05;101107.72;;;0.31;100.00
46347;BME280;32057;47.830;19.046;2023-02-17T03:36:30;101114.94;;;0.25;100.00
46347;BME280;32057;47.830;19.046;2023-02-17T03:38:56;101110.59;;;0.24;100.00
46347;BME280;32057;47.830;19.046;2023-02-17T03:41:22;101112.59;;;0.28;100.00
46347;BME280;32057;47.830;19.046;2023-02-17T03:43:47;101108.16;;;0.25;100.00
46347;BME280;32057;47.830;19.046;2023-02-17T03:46:14;101103.81;;;0.24;100.00
46347;BME280;32057;47.830;19.046;2023-02-17T03:48:40;101101.13;;;0.23;100.00
46347;BME280;32057;47.830;19.046;2023-02-17T03:51:11;101095.47;;;0.27;100.00
46347;BME280;32057;47.830;19.046;2023-02-17T03:53:38;101096.56;;;0.18;100.00
46347;BME280;32057;47.830;19.046;2023-02-17T03:56:03;101090.84;;;-0.01;100.00
46347;BME280;32057;47.830;19.046;2023-02-17T03:58:29;101098.38;;;-0.14;100.00
46347;BME280;32057;47.830;19.046;2023-02-17T04:00:54;101095.81;;;-0.14;100.00
46347;BME280;32057;47.830;19.046;2023-02-17T04:03:19;101097.16;;;-0.19;100.00
46347;BME280;32057;47.830;19.046;2023-02-17T04:05:45;101104.16;;;-0.17;100.00
46347;BME280;32057;47.830;19.046;2023-02-17T04:08:10;101103.50;;;-0.14;100.00
46347;BME280;32057;47.830;19.046;2023-02-17T04:10:36;101102.47;;;-0.16;100.00
46347;BME280;32057;47.830;19.046;2023-02-17T04:13:01;101100.72;;;-0.17;100.00
46347;BME280;32057;47.830;19.046;2023-02-17T04:15:27;101102.72;;;-0.13;100.00
46347;BME280;32057;47.830;19.046;2023-02-17T04:17:54;101102.31;;;-0.08;100.00
46347;BME280;32057;47.830;19.046;2023-02-17T04:20:19;101093.16;;;-0.04;100.00
46347;BME280;32057;47.830;19.046;2023-02-17T04:22:45;101091.63;;;-0.02;100.00
46347;BME280;32057;47.830;19.046;2023-02-17T04:25:10;101091.63;;;-0.02;100.00
46347;BME280;32057;47.830;19.046;2023-02-17T04:27:36;101090.84;;;-0.01;100.00
46347;BME280;32057;47.830;19.046;2023-02-17T04:30:01;101104.19;;;-0.05;100.00
46347;BME280;32057;47.830;19.046;2023-02-17T04:32:27;101101.63;;;-0.05;100.00
46347;BME280;32057;47.830;19.046;2023-02-17T04:34:53;101095.63;;;-0.06;100.00
46347;BME280;32057;47.830;19.046;2023-02-17T04:37:18;101089.44;;;0.03;100.00
46347;BME280;32057;47.830;19.046;2023-02-17T04:39:44;101092.31;;;0.07;100.00
46347;BME280;32057;47.830;19.046;2023-02-17T04:42:09;101089.00;;;0.08;100.00
46347;BME280;32057;47.830;19.046;2023-02-17T04:44:34;101092.31;;;0.07;100.00
46347;BME280;32057;47.830;19.046;2023-02-17T04:47:00;101095.75;;;0.08;100.00
46347;BME280;32057;47.830;19.046;2023-02-17T04:49:25;101101.25;;;0.12;100.00
46347;BME280;32057;47.830;19.046;2023-02-17T04:51:51;101101.91;;;0.22;100.00
46347;BME280;32057;47.830;19.046;2023-02-17T04:54:16;101096.91;;;0.23;100.00
46347;BME280;32057;47.830;19.046;2023-02-17T04:56:42;101092.13;;;0.28;100.00
46347;BME280;32057;47.830;19.046;2023-02-17T04:59:07;101084.78;;;0.21;100.00
46347;BME280;32057;47.830;19.046;2023-02-17T05:01:32;101089.78;;;0.19;100.00
46347;BME280;32057;47.830;19.046;2023-02-17T05:03:58;101095.00;;;0.21;100.00
46347;BME280;32057;47.830;19.046;2023-02-17T05:06:23;101099.69;;;0.14;100.00
46347;BME280;32057;47.830;19.046;2023-02-17T05:08:49;101093.66;;;0.14;100.00
46347;BME280;32057;47.830;19.046;2023-02-17T05:11:15;101090.09;;;0.12;100.00
46347;BME280;32057;47.830;19.046;2023-02-17T05:13:40;101092.31;;;0.07;100.00
46347;BME280;32057;47.830;19.046;2023-02-17T05:16:06;101097.44;;;0.07;100.00
46347;BME280;32057;47.830;19.046;2023-02-17T05:18:31;101102.66;;;0.09;100.00
46347;BME280;32057;47.830;19.046;2023-02-17T05:20:57;101093.44;;;0.11;100.00
46347;BME280;32057;47.830;19.046;2023-02-17T05:23:22;101084.75;;;0.09;100.00
46347;BME280;32057;47.830;19.046;2023-02-17T05:25:48;101087.53;;;0.12;100.00
46347;BME280;32057;47.830;19.046;2023-02-17T05:28:13;101087.78;;;0.15;100.00
46347;BME280;32057;47.830;19.046;2023-02-17T05:30:39;101088.91;;;0.18;100.00
46347;BME280;32057;47.830;19.046;2023-02-17T05:33:04;101084.78;;;0.21;100.00
46347;BME280;32057;47.830;19.046;2023-02-17T05:35:30;101080.09;;;0.27;100.00
46347;BME280;32057;47.830;19.046;2023-02-17T05:37:55;101082.78;;;0.28;100.00
46347;BME280;32057;47.830;19.046;2023-02-17T05:40:20;101079.75;;;0.34;100.00
46347;BME280;32057;47.830;19.046;2023-02-17T05:42:46;101091.00;;;0.36;100.00
46347;BME280;32057;47.830;19.046;2023-02-17T05:45:11;101085.56;;;0.31;100.00
46347;BME280;32057;47.830;19.046;2023-02-17T05:47:37;101088.13;;;0.31;100.00
46347;BME280;32057;47.830;19.046;2023-02-17T05:50:02;101090.69;;;0.31;100.00
46347;BME280;32057;47.830;19.046;2023-02-17T05:52:28;101090.25;;;0.37;100.00
46347;BME280;32057;47.830;19.046;2023-02-17T05:54:53;101085.38;;;0.40;100.00
46347;BME280;32057;47.830;19.046;2023-02-17T05:57:19;101084.00;;;0.45;100.00
46347;BME280;32057;47.830;19.046;2023-02-17T05:59:44;101076.56;;;0.48;100.00
46347;BME280;32057;47.830;19.046;2023-02-17T06:02:10;101077.66;;;0.52;100.00
46347;BME280;32057;47.830;19.046;2023-02-17T06:04:35;101083.00;;;0.55;100.00
46347;BME280;32057;47.830;19.046;2023-02-17T06:07:01;101074.53;;;0.56;100.00
46347;BME280;32057;47.830;19.046;2023-02-17T06:09:26;101079.13;;;0.60;100.00
46347;BME280;32057;47.830;19.046;2023-02-17T06:11:51;101083.69;;;0.64;100.00
46347;BME280;32057;47.830;19.046;2023-02-17T06:14:17;101077.00;;;0.66;100.00
46347;BME280;32057;47.830;19.046;2023-02-17T06:16:42;101076.53;;;0.72;100.00
46347;BME280;32057;47.830;19.046;2023-02-17T06:19:08;101084.13;;;0.82;100.00
46347;BME280;32057;47.830;19.046;2023-02-17T06:21:33;101081.19;;;0.89;100.00
46347;BME280;32057;47.830;19.046;2023-02-17T06:23:59;101082.63;;;0.97;100.00
46347;BME280;32057;47.830;19.046;2023-02-17T06:26:24;101093.84;;;1.11;100.00
46347;BME280;32057;47.830;19.046;2023-02-17T06:28:49;101095.19;;;1.18;100.00
46347;BME280;32057;47.830;19.046;2023-02-17T06:31:15;101095.63;;;1.24;100.00
46347;BME280;32057;47.830;19.046;2023-02-17T06:33:40;101097.03;;;1.32;100.00
46347;BME280;32057;47.830;19.046;2023-02-17T06:36:06;101099.13;;;1.38;100.00
46347;BME280;32057;47.830;19.046;2023-02-17T06:38:32;101103.78;;;1.44;100.00
46347;BME280;32057;47.830;19.046;2023-02-17T06:40:57;101099.56;;;1.44;100.00
46347;BME280;32057;47.830;19.046;2023-02-17T06:43:23;101100.41;;;1.56;100.00
46347;BME280;32057;47.830;19.046;2023-02-17T06:45:48;101104.28;;;1.63;100.00
46347;BME280;32057;47.830;19.046;2023-02-17T06:48:14;101097.22;;;1.72;100.00
46347;BME280;32057;47.830;19.046;2023-02-17T06:50:39;101103.91;;;1.70;100.00
46347;BME280;32057;47.830;19.046;2023-02-17T06:53:06;101107.13;;;1.68;100.00
46347;BME280;32057;47.830;19.046;2023-02-17T06:55:31;101105.25;;;1.65;100.00
46347;BME280;32057;47.830;19.046;2023-02-17T06:57:58;101110.41;;;1.65;100.00
46347;BME280;32057;47.830;19.046;2023-02-17T07:00:24;101113.94;;;1.67;100.00
46347;BME280;32057;47.830;19.046;2023-02-17T07:02:51;101118.31;;;1.68;100.00
46347;BME280;32057;47.830;19.046;2023-02-17T07:05:16;101116.16;;;1.74;100.00
46347;BME280;32057;47.830;19.046;2023-02-17T07:07:42;101106.31;;;1.81;100.00
46347;BME280;32057;47.830;19.046;2023-02-17T07:10:07;101114.31;;;1.85;100.00
46347;BME280;32057;47.830;19.046;2023-02-17T07:12:33;101114.06;;;1.94;100.00
46347;BME280;32057;47.830;19.046;2023-02-17T07:14:58;101116.81;;;1.97;100.00
46347;BME280;32057;47.830;19.046;2023-02-17T07:17:24;101113.91;;;2.04;100.00
46347;BME280;32057;47.830;19.046;2023-02-17T07:19:49;101106.72;;;2.12;100.00
46347;BME280;32057;47.830;19.046;2023-02-17T07:22:15;101102.88;;;2.18;100.00
46347;BME280;32057;47.830;19.046;2023-02-17T07:24:40;101095.34;;;2.22;100.00
46347;BME280;32057;47.830;19.046;2023-02-17T07:27:06;101092.22;;;2.26;100.00
46347;BME280;32057;47.830;19.046;2023-02-17T07:29:32;101090.53;;;2.26;100.00
46347;BME280;32057;47.830;19.046;2023-02-17T07:31:58;101079.56;;;2.29;100.00
46347;BME280;32057;47.830;19.046;2023-02-17T07:34:23;101083.41;;;2.35;100.00
46347;BME280;32057;47.830;19.046;2023-02-17T07:36:49;101088.88;;;2.40;100.00
46347;BME280;32057;47.830;19.046;2023-02-17T07:39:15;101077.09;;;2.44;100.00
46347;BME280;32057;47.830;19.046;2023-02-17T07:41:40;101082.66;;;2.50;100.00
46347;BME280;32057;47.830;19.046;2023-02-17T07:44:06;101075.03;;;2.51;100.00
46347;BME280;32057;47.830;19.046;2023-02-17T07:46:31;101072.06;;;2.58;100.00
46347;BME280;32057;47.830;19.046;2023-02-17T07:48:57;101076.41;;;2.59;100.00
46347;BME280;32057;47.830;19.046;2023-02-17T07:51:23;101073.56;;;2.68;100.00
46347;BME280;32057;47.830;19.046;2023-02-17T07:53:50;101071.47;;;2.76;100.00
46347;BME280;32057;47.830;19.046;2023-02-17T07:56:17;101073.84;;;2.86;100.00
46347;BME280;32057;47.830;19.046;2023-02-17T07:58:44;101073.22;;;2.90;100.00
46347;BME280;32057;47.830;19.046;2023-02-17T08:01:15;101072.63;;;2.94;100.00
46347;BME280;32057;47.830;19.046;2023-02-17T08:03:41;101079.03;;;3.01;100.00
46347;BME280;32057;47.830;19.046;2023-02-17T08:06:16;101079.63;;;3.10;100.00
46347;BME280;32057;47.830;19.046;2023-02-17T08:08:42;101074.34;;;3.22;100.00
46347;BME280;32057;47.830;19.046;2023-02-17T08:11:26;101078.66;;;3.36;100.00
46347;BME280;32057;47.830;19.046;2023-02-17T08:14:11;101090.06;;;3.55;100.00
46347;BME280;32057;47.830;19.046;2023-02-17T08:16:36;101091.88;;;3.71;100.00
46347;BME280;32057;47.830;19.046;2023-02-17T08:19:01;101093.88;;;3.90;100.00
46347;BME280;32057;47.830;19.046;2023-02-17T08:21:27;101096.56;;;4.06;100.00
46347;BME280;32057;47.830;19.046;2023-02-17T08:23:54;101091.75;;;4.27;100.00
46347;BME280;32057;47.830;19.046;2023-02-17T08:26:19;101092.75;;;4.44;100.00
46347;BME280;32057;47.830;19.046;2023-02-17T08:28:45;101094.59;;;4.62;100.00
46347;BME280;32057;47.830;19.046;2023-02-17T08:31:19;101089.41;;;4.76;100.00
46347;BME280;32057;47.830;19.046;2023-02-17T08:33:45;101084.22;;;4.91;100.00
46347;BME280;32057;47.830;19.046;2023-02-17T08:36:11;101086.66;;;5.05;100.00
46347;BME280;32057;47.830;19.046;2023-02-17T08:38:36;101099.34;;;5.16;100.00
46347;BME280;32057;47.830;19.046;2023-02-17T08:41:11;101101.59;;;5.27;100.00
46347;BME280;32057;47.830;19.046;2023-02-17T08:43:36;101099.53;;;5.36;100.00
46347;BME280;32057;47.830;19.046;2023-02-17T08:46:06;101098.41;;;5.47;100.00
46347;BME280;32057;47.830;19.046;2023-02-17T08:48:32;101105.28;;;5.63;100.00
46347;BME280;32057;47.830;19.046;2023-02-17T08:50:58;101100.59;;;5.72;100.00
46347;BME280;32057;47.830;19.046;2023-02-17T08:53:23;101095.72;;;5.78;100.00
46347;BME280;32057;47.830;19.046;2023-02-17T08:55:48;101090.56;;;5.78;98.67
46347;BME280;32057;47.830;19.046;2023-02-17T08:58:14;101091.44;;;5.79;99.18
46347;BME280;32057;47.830;19.046;2023-02-17T09:00:39;101086.44;;;5.82;98.83
46347;BME280;32057;47.830;19.046;2023-02-17T09:03:05;101086.69;;;5.87;99.76
46347;BME280;32057;47.830;19.046;2023-02-17T09:05:32;101083.63;;;5.94;99.99
46347;BME280;32057;47.830;19.046;2023-02-17T09:07:59;101081.16;;;5.95;97.90
46347;BME280;32057;47.830;19.046;2023-02-17T09:10:25;101082.03;;;5.96;96.76
46347;BME280;32057;47.830;19.046;2023-02-17T09:12:50;101075.97;;;5.95;97.01
46347;BME280;32057;47.830;19.046;2023-02-17T09:15:16;101077.25;;;5.87;96.76
46347;BME280;32057;47.830;19.046;2023-02-17T09:17:41;101078.06;;;5.86;98.14
46347;BME280;32057;47.830;19.046;2023-02-17T09:20:07;101072.00;;;5.86;98.80
46347;BME280;32057;47.830;19.046;2023-02-17T09:22:33;101073.75;;;5.87;97.91
46347;BME280;32057;47.830;19.046;2023-02-17T09:24:59;101075.34;;;6.00;97.55
46347;BME280;32057;47.830;19.046;2023-02-17T09:27:24;101078.44;;;6.10;94.30
46347;BME280;32057;47.830;19.046;2023-02-17T09:29:49;101079.94;;;6.05;93.35
46347;BME280;32057;47.830;19.046;2023-02-17T09:32:15;101069.06;;;6.12;93.23
46347;BME280;32057;47.830;19.046;2023-02-17T09:34:40;101070.19;;;6.17;93.86
46347;BME280;32057;47.830;19.046;2023-02-17T09:37:13;101065.59;;;6.12;92.32
46347;BME280;32057;47.830;19.046;2023-02-17T09:39:39;101063.41;;;6.20;92.31
46347;BME280;32057;47.830;19.046;2023-02-17T09:42:04;101069.63;;;6.23;92.24
46347;BME280;32057;47.830;19.046;2023-02-17T09:44:39;101073.31;;;6.28;92.74
46347;BME280;32057;47.830;19.046;2023-02-17T09:47:11;101061.66;;;6.36;91.19
46347;BME280;32057;47.830;19.046;2023-02-17T09:49:47;101048.97;;;6.41;90.26
46347;BME280;32057;47.830;19.046;2023-02-17T09:52:36;101051.19;;;6.51;91.54
46347;BME280;32057;47.830;19.046;2023-02-17T09:55:07;101040.75;;;6.68;91.29
46347;BME280;32057;47.830;19.046;2023-02-17T10:00:31;101053.19;;;6.94;87.32
46347;BME280;32057;47.830;19.046;2023-02-17T10:03:15;101047.44;;;7.00;85.63
46347;BME280;32057;47.830;19.046;2023-02-17T10:05:48;101045.19;;;7.08;86.31
46347;BME280;32057;47.830;19.046;2023-02-17T10:08:20;101040.13;;;7.11;84.84
46347;BME280;32057;47.830;19.046;2023-02-17T10:11:00;101037.44;;;7.08;84.32
46347;BME280;32057;47.830;19.046;2023-02-17T10:13:30;101032.97;;;6.86;84.50
46347;BME280;32057;47.830;19.046;2023-02-17T10:16:03;101021.16;;;6.73;86.30
46347;BME280;32057;47.830;19.046;2023-02-17T10:18:36;101015.41;;;6.61;86.99
46347;BME280;32057;47.830;19.046;2023-02-17T10:21:09;101014.22;;;6.72;87.45
46347;BME280;32057;47.830;19.046;2023-02-17T10:23:36;101013.75;;;6.81;87.67
46347;BME280;32057;47.830;19.046;2023-02-17T10:34:09;100997.22;;;6.96;85.15
46347;BME280;32057;47.830;19.046;2023-02-17T10:36:59;100992.06;;;6.96;85.07
46347;BME280;32057;47.830;19.046;2023-02-17T10:39:47;100991.59;;;7.05;84.22
46347;BME280;32057;47.830;19.046;2023-02-17T10:42:20;100990.97;;;7.11;83.86
46347;BME280;32057;47.830;19.046;2023-02-17T10:44:48;100988.88;;;7.22;82.94
46347;BME280;32057;47.830;19.046;2023-02-17T10:47:16;100986.22;;;7.20;82.06
46347;BME280;32057;47.830;19.046;2023-02-17T10:49:45;100969.19;;;7.25;80.99
46347;BME280;32057;47.830;19.046;2023-02-17T10:52:17;100954.81;;;7.32;82.04
46347;BME280;32057;47.830;19.046;2023-02-17T10:57:12;100951.03;;;7.45;82.96
46347;BME280;32057;47.830;19.046;2023-02-17T10:59:46;100939.00;;;7.45;80.72
46347;BME280;32057;47.830;19.046;2023-02-17T11:02:31;100944.91;;;7.43;80.88
46347;BME280;32057;47.830;19.046;2023-02-17T11:04:58;100947.56;;;7.44;81.34
46347;BME280;32057;47.830;19.046;2023-02-17T11:07:33;100945.03;;;7.46;80.90
46347;BME280;32057;47.830;19.046;2023-02-17T11:10:01;100938.09;;;7.45;80.82
46347;BME280;32057;47.830;19.046;2023-02-17T11:12:32;100936.72;;;7.53;80.65
46347;BME280;32057;47.830;19.046;2023-02-17T11:14:58;100939.03;;;7.47;80.75
46347;BME280;32057;47.830;19.046;2023-02-17T11:17:37;100935.91;;;7.54;82.30
46347;BME280;32057;47.830;19.046;2023-02-17T11:20:27;100926.63;;;7.59;80.70
46347;BME280;32057;47.830;19.046;2023-02-17T11:23:03;100918.78;;;7.57;80.65
46347;BME280;32057;47.830;19.046;2023-02-17T11:25:32;100921.56;;;7.62;80.63
46347;BME280;32057;47.830;19.046;2023-02-17T11:28:00;100926.19;;;7.69;81.42
46347;BME280;32057;47.830;19.046;2023-02-17T11:30:27;100920.31;;;7.73;81.86
46347;BME280;32057;47.830;19.046;2023-02-17T11:32:53;100915.25;;;7.76;81.01
46347;BME280;32057;47.830;19.046;2023-02-17T11:37:51;100904.00;;;7.97;80.29
46347;BME280;32057;47.830;19.046;2023-02-17T11:40:29;100900.41;;;7.93;79.24
46347;BME280;32057;47.830;19.046;2023-02-17T11:43:00;100903.88;;;7.94;79.82
46347;BME280;32057;47.830;19.046;2023-02-17T11:45:37;100904.00;;;7.97;77.25
46347;BME280;32057;47.830;19.046;2023-02-17T11:53:51;100898.00;;;8.21;76.72
46347;BME280;32057;47.830;19.046;2023-02-17T11:56:24;100888.53;;;8.21;77.49
46347;BME280;32057;47.830;19.046;2023-02-17T12:18:15;100871.88;;;8.38;75.32
46347;BME280;32057;47.830;19.046;2023-02-17T12:20:50;100874.44;;;8.37;76.97
46347;BME280;32057;47.830;19.046;2023-02-17T12:36:38;100870.06;;;8.58;76.16
46347;BME280;32057;47.830;19.046;2023-02-17T12:39:20;100868.53;;;8.64;75.93
46347;BME280;32057;47.830;19.046;2023-02-17T12:42:46;100868.53;;;8.64;76.49
46347;BME280;32057;47.830;19.046;2023-02-17T12:44:53;100867.00;;;8.69;77.38
46347;BME280;32057;47.830;19.046;2023-02-17T12:47:31;100873.94;;;8.70;79.98
46347;BME280;32057;47.830;19.046;2023-02-17T12:50:13;100866.31;;;8.74;81.11
46347;BME280;32057;47.830;19.046;2023-02-17T12:52:43;100861.13;;;8.74;82.78
46347;BME280;32057;47.830;19.046;2023-02-17T12:55:23;100846.34;;;8.72;83.22
46347;BME280;32057;47.830;19.046;2023-02-17T12:58:00;100847.13;;;8.69;84.69
46347;BME280;32057;47.830;19.046;2023-02-17T13:00:45;100849.59;;;8.66;86.09
46347;BME280;32057;47.830;19.046;2023-02-17T13:03:11;100847.78;;;8.64;89.42
46347;BME280;32057;47.830;19.046;2023-02-17T13:05:57;100853.69;;;8.60;89.74
46347;BME280;32057;47.830;19.046;2023-02-17T13:08:39;100857.09;;;8.58;91.89
46347;BME280;32057;47.830;19.046;2023-02-17T13:11:11;100852.84;;;8.61;93.40
46347;BME280;32057;47.830;19.046;2023-02-17T13:13:37;100859.69;;;8.58;94.83
46347;BME280;32057;47.830;19.046;2023-02-17T13:16:10;100853.75;;;8.61;96.89
46347;BME280;32057;47.830;19.046;2023-02-17T13:18:39;100852.84;;;8.61;99.48
46347;BME280;32057;47.830;19.046;2023-02-17T13:24:31;100847.78;;;8.64;94.19
46347;BME280;32057;47.830;19.046;2023-02-17T13:32:33;100825.94;;;8.57;96.93
46347;BME280;32057;47.830;19.046;2023-02-17T13:35:32;100830.19;;;8.55;97.71
46347;BME280;32057;47.830;19.046;2023-02-17T13:37:58;100828.25;;;8.49;99.14
46347;BME280;32057;47.830;19.046;2023-02-17T13:40:32;100828.34;;;8.52;98.58
46347;BME280;32057;47.830;19.046;2023-02-17T13:43:18;100830.94;;;8.52;100.00
46347;BME280;32057;47.830;19.046;2023-02-17T13:45:58;100826.47;;;8.48;100.00
46347;BME280;32057;47.830;19.046;2023-02-17T13:48:31;100821.28;;;8.48;100.00
46347;BME280;32057;47.830;19.046;2023-02-17T13:50:59;100828.13;;;8.46;100.00
46347;BME280;32057;47.830;19.046;2023-02-17T13:53:33;100818.34;;;8.39;100.00
46347;BME280;32057;47.830;19.046;2023-02-17T13:56:27;100825.91;;;8.34;100.00
46347;BME280;32057;47.830;19.046;2023-02-17T13:58:51;100824.94;;;8.31;100.00
46347;BME280;32057;47.830;19.046;2023-02-17T14:01:20;100826.19;;;8.18;100.00
46347;BME280;32057;47.830;19.046;2023-02-17T14:03:49;100825.31;;;8.17;100.00
46347;BME280;32057;47.830;19.046;2023-02-17T14:06:35;100822.47;;;8.11;100.00
46347;BME280;32057;47.830;19.046;2023-02-17T14:11:50;100833.03;;;7.93;100.00
46347;BME280;32057;47.830;19.046;2023-02-17T14:14:16;100822.47;;;7.89;100.00
46347;BME280;32057;47.830;19.046;2023-02-17T14:16:42;100816.31;;;7.87;100.00
46347;BME280;32057;47.830;19.046;2023-02-17T14:19:12;100810.88;;;7.79;100.00